createdAt,value
2022-10-14T00:01:23.277Z,11.22
2022-10-14T00:03:53.185Z,11.22
2022-10-14T00:06:24.156Z,11.20
2022-10-14T00:08:53.363Z,11.06
2022-10-14T00:11:23.214Z,10.98
2022-10-14T00:13:52.134Z,11.03
2022-10-14T00:16:22.257Z,11.03
2022-10-14T00:18:52.099Z,10.98
2022-10-14T00:21:20.966Z,10.93
2022-10-14T00:23:49.145Z,10.96
2022-10-14T00:26:19.378Z,10.95
2022-10-14T00:28:47.368Z,10.90
2022-10-14T00:31:16.401Z,10.85
2022-10-14T00:33:45.451Z,10.78
2022-10-14T00:36:16.419Z,10.77
2022-10-14T00:38:45.327Z,10.84
2022-10-14T00:41:14.480Z,10.70
2022-10-14T00:43:58.813Z,10.75
2022-10-14T00:46:29.197Z,10.74
2022-10-14T00:48:58.048Z,10.71
2022-10-14T00:51:27.585Z,10.75
2022-10-14T00:53:55.468Z,10.69
2022-10-14T00:56:28.288Z,10.68
2022-10-14T00:58:56.813Z,10.68
2022-10-14T01:01:24.967Z,10.71
2022-10-14T01:03:55.189Z,10.69
2022-10-14T01:07:00.525Z,10.78
2022-10-14T01:09:34.898Z,10.81
2022-10-14T01:12:29.776Z,10.85
2022-10-14T01:15:05.266Z,10.81
2022-10-14T01:17:45.819Z,10.81
2022-10-14T01:20:42.876Z,10.74
2022-10-14T01:23:40.887Z,10.70
2022-10-14T01:26:33.416Z,10.73
2022-10-14T01:29:16.273Z,10.71
2022-10-14T01:31:48.986Z,10.75
2022-10-14T01:34:25.504Z,10.78
2022-10-14T01:37:00.371Z,10.79
2022-10-14T01:39:33.927Z,10.80
2022-10-14T01:42:05.914Z,10.68
2022-10-14T01:44:36.468Z,10.74
2022-10-14T01:47:08.167Z,10.73
2022-10-14T01:49:39.987Z,10.69
2022-10-14T01:52:11.228Z,10.73
2022-10-14T01:54:42.479Z,10.80
2022-10-14T01:57:14.440Z,10.69
2022-10-14T01:59:44.436Z,10.61
2022-10-14T02:02:14.677Z,10.69
2022-10-14T02:04:42.602Z,10.74
2022-10-14T02:07:21.414Z,10.60
2022-10-14T02:09:54.831Z,10.68
2022-10-14T02:12:33.729Z,10.66
2022-10-14T02:15:12.009Z,10.67
2022-10-14T02:17:49.985Z,10.62
2022-10-14T02:20:27.943Z,10.68
2022-10-14T02:23:01.982Z,10.71
2022-10-14T02:25:33.720Z,10.71
2022-10-14T02:28:03.425Z,10.73
2022-10-14T02:30:36.665Z,10.75
2022-10-14T02:33:06.310Z,10.69
2022-10-14T02:35:36.068Z,10.71
2022-10-14T02:38:06.341Z,10.75
2022-10-14T02:40:39.134Z,10.77
2022-10-14T02:43:09.971Z,10.67
2022-10-14T02:45:41.613Z,10.71
2022-10-14T02:48:11.965Z,10.68
2022-10-14T02:50:40.327Z,10.64
2022-10-14T02:53:08.219Z,10.63
2022-10-14T02:55:36.203Z,10.55
2022-10-14T02:58:04.009Z,10.55
2022-10-14T03:00:31.887Z,10.55
2022-10-14T03:02:59.743Z,10.49
2022-10-14T03:05:29.516Z,10.39
2022-10-14T03:07:57.474Z,10.32
2022-10-14T03:10:25.347Z,10.30
2022-10-14T03:12:53.238Z,10.34
2022-10-14T03:15:21.345Z,10.37
2022-10-14T03:17:50.735Z,10.35
2022-10-14T03:20:18.919Z,10.26
2022-10-14T03:22:48.451Z,10.20
2022-10-14T03:25:16.750Z,10.27
2022-10-14T03:27:44.884Z,10.29
2022-10-14T03:30:13.443Z,10.16
2022-10-14T03:32:41.570Z,10.18
2022-10-14T03:35:10.346Z,9.97
2022-10-14T03:37:38.490Z,9.96
2022-10-14T03:40:10.315Z,9.92
2022-10-14T03:42:40.587Z,9.90
2022-10-14T03:45:09.551Z,9.96
2022-10-14T03:47:37.571Z,9.92
2022-10-14T03:50:12.643Z,9.89
2022-10-14T03:52:46.439Z,9.90
2022-10-14T03:55:16.322Z,9.95
2022-10-14T03:57:44.180Z,9.95
2022-10-14T04:00:13.789Z,9.92
2022-10-14T04:02:45.113Z,9.96
2022-10-14T04:05:14.321Z,10.00
2022-10-14T04:07:51.799Z,10.05
2022-10-14T04:10:22.140Z,10.01
2022-10-14T04:12:53.506Z,10.04
2022-10-14T04:15:21.626Z,10.07
2022-10-14T04:17:49.716Z,10.07
2022-10-14T04:20:18.513Z,10.12
2022-10-14T04:22:47.729Z,10.14
2022-10-14T04:25:19.817Z,10.10
2022-10-14T04:27:50.107Z,10.17
2022-10-14T04:30:18.058Z,10.18
2022-10-14T04:32:46.771Z,10.20
2022-10-14T04:35:15.036Z,10.19
2022-10-14T04:37:43.715Z,10.24
2022-10-14T04:40:12.936Z,10.28
2022-10-14T04:42:45.232Z,10.30
2022-10-14T04:45:14.679Z,10.34
2022-10-14T04:47:48.460Z,10.25
2022-10-14T04:50:16.993Z,10.24
2022-10-14T04:52:47.648Z,10.11
2022-10-14T04:55:15.595Z,10.12
2022-10-14T04:57:44.260Z,10.15
2022-10-14T05:00:15.743Z,10.06
2022-10-14T05:02:48.135Z,10.08
2022-10-14T05:05:17.451Z,10.09
2022-10-14T05:07:45.627Z,10.11
2022-10-14T05:10:13.688Z,10.14
2022-10-14T05:12:42.646Z,10.17
2022-10-14T05:15:14.991Z,10.06
2022-10-14T05:17:45.582Z,10.19
2022-10-14T05:20:13.912Z,10.28
2022-10-14T05:22:41.910Z,10.27
2022-10-14T05:25:10.297Z,10.36
2022-10-14T05:27:38.223Z,10.29
2022-10-14T05:30:08.121Z,10.35
2022-10-14T05:32:38.178Z,10.36
2022-10-14T05:35:08.316Z,10.32
2022-10-14T05:37:37.401Z,10.37
2022-10-14T05:40:07.418Z,10.33
2022-10-14T05:42:35.251Z,10.32
2022-10-14T05:45:03.082Z,10.34
2022-10-14T05:47:30.970Z,10.32
2022-10-14T05:50:01.427Z,10.34
2022-10-14T05:52:34.384Z,10.36
2022-10-14T05:55:02.684Z,10.38
2022-10-14T05:57:30.587Z,10.39
2022-10-14T05:59:58.798Z,10.40
2022-10-14T06:02:26.877Z,10.36
2022-10-14T06:04:54.793Z,10.42
2022-10-14T06:07:24.799Z,10.41
2022-10-14T06:09:54.085Z,10.41
2022-10-14T06:12:25.264Z,10.45
2022-10-14T06:14:53.228Z,10.50
2022-10-14T06:17:21.285Z,10.51
2022-10-14T06:23:37.065Z,10.51
2022-10-14T06:26:09.957Z,10.66
2022-10-14T06:28:42.625Z,10.63
2022-10-14T06:31:11.083Z,10.61
2022-10-14T06:33:39.083Z,10.60
2022-10-14T06:36:08.159Z,10.55
2022-10-14T06:38:38.686Z,10.60
2022-10-14T06:41:09.516Z,10.55
2022-10-14T06:43:39.075Z,10.56
2022-10-14T06:46:08.717Z,10.67
2022-10-14T06:48:38.696Z,10.68
2022-10-14T06:51:07.628Z,10.79
2022-10-14T06:53:38.837Z,10.83
2022-10-14T06:56:12.697Z,10.89
2022-10-14T06:58:41.760Z,10.89
2022-10-14T07:01:10.476Z,10.79
2022-10-14T07:03:42.011Z,10.79
2022-10-14T07:06:10.512Z,10.82
2022-10-14T07:08:39.313Z,10.90
2022-10-14T07:11:09.499Z,10.79
2022-10-14T07:13:40.322Z,11.11
2022-10-14T07:16:09.441Z,11.05
2022-10-14T07:18:37.484Z,11.08
2022-10-14T07:21:11.050Z,11.18
2022-10-14T07:23:39.006Z,11.01
2022-10-14T07:26:07.513Z,11.13
2022-10-14T07:28:35.823Z,10.88
2022-10-14T07:31:10.196Z,11.02
2022-10-14T07:34:00.361Z,11.01
2022-10-14T07:36:34.565Z,11.05
2022-10-14T07:39:04.473Z,10.98
2022-10-14T07:41:33.048Z,11.17
2022-10-14T07:44:05.811Z,11.17
2022-10-14T07:46:48.707Z,10.99
2022-10-14T07:49:18.973Z,11.17
2022-10-14T07:51:50.133Z,11.15
2022-10-14T07:54:24.460Z,11.13
2022-10-14T07:56:53.219Z,11.13
2022-10-14T07:59:23.215Z,11.01
2022-10-14T08:01:57.750Z,11.26
2022-10-14T08:04:30.819Z,11.29
2022-10-14T08:06:59.823Z,11.51
2022-10-14T08:09:28.054Z,11.58
2022-10-14T08:15:30.420Z,11.64
2022-10-14T08:18:02.684Z,11.87
2022-10-14T08:20:32.372Z,11.85
2022-10-14T08:23:01.948Z,11.78
2022-10-14T08:25:30.834Z,11.68
2022-10-14T08:27:58.832Z,11.94
2022-10-14T08:30:26.928Z,11.91
2022-10-14T08:32:55.340Z,11.95
2022-10-14T08:35:42.782Z,11.90
2022-10-14T08:38:25.261Z,11.95
2022-10-14T08:41:05.682Z,11.87
2022-10-14T08:43:37.789Z,11.86
2022-10-14T08:46:15.338Z,11.93
2022-10-14T08:48:45.751Z,11.96
2022-10-14T08:51:20.118Z,11.98
2022-10-14T08:53:56.174Z,12.10
2022-10-14T08:56:25.546Z,12.20
2022-10-14T09:02:01.623Z,12.08
2022-10-14T09:05:12.480Z,12.01
2022-10-14T09:14:53.516Z,12.38
2022-10-14T09:17:34.118Z,12.36
2022-10-14T09:20:30.836Z,12.38
2022-10-14T09:23:10.807Z,12.38
2022-10-14T09:26:25.977Z,12.35
2022-10-14T09:28:56.755Z,12.35
2022-10-14T09:34:24.029Z,12.51
2022-10-14T09:47:43.081Z,12.41
2022-10-14T09:53:59.496Z,12.44
2022-10-14T09:59:44.367Z,12.47
2022-10-14T10:02:43.038Z,12.42
2022-10-14T10:05:34.034Z,12.30
2022-10-14T10:08:17.735Z,12.40
2022-10-14T10:11:06.874Z,12.44
2022-10-14T10:13:51.063Z,12.46
2022-10-14T10:16:24.650Z,12.51
2022-10-14T10:21:54.952Z,12.53
2022-10-14T10:24:28.794Z,12.44
2022-10-14T10:27:03.365Z,12.20
2022-10-14T10:29:35.955Z,12.47
2022-10-14T10:32:18.630Z,12.40
2022-10-14T10:35:08.966Z,12.49
2022-10-14T10:37:48.832Z,12.50
2022-10-14T10:40:37.848Z,12.75
2022-10-14T10:43:49.262Z,12.81
2022-10-14T10:46:33.986Z,12.87
2022-10-14T10:49:12.731Z,12.81
2022-10-14T10:51:53.440Z,12.71
2022-10-14T10:54:33.583Z,12.67
2022-10-14T10:57:09.649Z,12.74
2022-10-14T11:00:09.433Z,12.60
2022-10-14T11:02:56.833Z,12.73
2022-10-14T11:05:53.165Z,12.66
2022-10-14T11:08:57.793Z,12.75
2022-10-14T11:11:47.222Z,12.86
2022-10-14T11:14:38.016Z,12.84
2022-10-14T11:17:14.348Z,12.91
2022-10-14T11:19:51.649Z,12.86
2022-10-14T11:22:35.366Z,13.05
2022-10-14T11:25:16.693Z,13.23
2022-10-14T11:27:52.108Z,13.27
2022-10-14T11:30:25.370Z,13.33
2022-10-14T11:33:11.235Z,13.24
2022-10-14T12:19:49.762Z,13.20
2022-10-14T12:41:44.068Z,13.31
2022-10-14T12:44:18.840Z,13.49
2022-10-14T12:46:49.416Z,13.66
2022-10-14T12:49:27.502Z,13.71
2022-10-14T12:51:57.771Z,13.64
2022-10-14T12:54:27.815Z,13.61
2022-10-14T12:56:59.938Z,13.58
2022-10-14T12:59:31.259Z,13.76
2022-10-14T13:02:06.238Z,13.70
2022-10-14T13:04:35.283Z,13.81
2022-10-14T13:07:42.024Z,13.87
2022-10-14T13:10:55.105Z,13.89
2022-10-14T13:13:52.642Z,13.91
2022-10-14T13:16:59.114Z,13.93
2022-10-14T13:20:04.551Z,13.98
2022-10-14T13:22:49.563Z,14.04
2022-10-14T13:25:22.296Z,14.02
2022-10-14T13:28:16.352Z,14.03
2022-10-14T13:31:03.825Z,13.90
2022-10-14T13:33:40.769Z,13.97
2022-10-14T13:36:25.316Z,14.10
2022-10-14T13:38:57.080Z,14.09
2022-10-14T13:41:30.843Z,14.14
2022-10-14T13:44:03.407Z,14.08
2022-10-14T13:49:53.340Z,14.04
2022-10-14T13:52:25.985Z,14.21
2022-10-14T13:55:14.784Z,14.39
2022-10-14T13:58:12.483Z,14.48
2022-10-14T14:00:54.058Z,14.47
2022-10-14T14:03:48.186Z,14.62
2022-10-14T14:09:36.685Z,14.85
2022-10-14T14:12:06.686Z,14.77
2022-10-14T14:14:41.166Z,14.65
2022-10-14T14:17:20.148Z,14.63
2022-10-14T14:19:53.296Z,14.62
2022-10-14T14:22:27.644Z,14.55
2022-10-14T14:25:46.710Z,14.63
2022-10-14T14:28:15.485Z,14.48
2022-10-14T14:30:54.537Z,14.34
2022-10-14T14:33:30.794Z,14.26
2022-10-14T14:36:02.942Z,14.30
2022-10-14T14:38:34.039Z,14.22
2022-10-14T14:41:04.136Z,14.34
2022-10-14T14:43:44.700Z,14.24
2022-10-14T14:46:41.953Z,14.38
2022-10-14T14:49:34.661Z,14.28
2022-10-14T14:52:21.726Z,14.30
2022-10-14T14:54:51.999Z,14.24
2022-10-14T14:57:25.197Z,14.25
2022-10-14T15:00:19.702Z,14.24
2022-10-14T15:03:01.707Z,14.18
2022-10-14T15:05:35.511Z,14.12
2022-10-14T15:08:22.392Z,14.15
2022-10-14T15:10:51.455Z,14.05
2022-10-14T15:13:32.466Z,14.06
2022-10-14T15:16:05.508Z,14.01
2022-10-14T15:18:54.129Z,14.13
2022-10-14T15:21:54.477Z,14.10
2022-10-14T15:24:22.767Z,14.17
2022-10-14T15:26:57.880Z,14.27
2022-10-14T15:29:29.805Z,14.27
2022-10-14T15:32:12.755Z,14.24
2022-10-14T15:34:46.467Z,14.20
2022-10-14T15:37:17.492Z,14.21
2022-10-14T15:40:08.391Z,14.27
2022-10-14T15:42:36.567Z,14.08
2022-10-14T15:45:06.483Z,14.10
2022-10-14T15:47:36.127Z,14.14
2022-10-14T15:50:12.640Z,14.15
2022-10-14T15:52:45.870Z,14.11
2022-10-14T15:55:21.090Z,14.11
2022-10-14T15:57:50.079Z,14.18
2022-10-14T16:00:23.877Z,14.13
2022-10-14T16:03:04.418Z,14.18
2022-10-14T16:05:35.432Z,14.19
2022-10-14T16:08:13.056Z,14.21
2022-10-14T16:10:44.639Z,14.08
2022-10-14T16:13:16.604Z,14.03
2022-10-14T16:15:50.462Z,14.13
2022-10-14T16:18:21.867Z,14.17
2022-10-14T16:20:53.681Z,14.01
2022-10-14T16:23:29.698Z,14.07
2022-10-14T16:26:03.819Z,14.02
2022-10-14T16:28:40.593Z,14.12
2022-10-14T16:31:46.144Z,13.98
2022-10-14T16:41:04.198Z,13.99
2022-10-14T16:43:32.578Z,14.10
2022-10-14T16:50:10.349Z,13.98
2022-10-14T16:53:09.272Z,13.93
2022-10-14T16:55:39.791Z,14.01
2022-10-14T16:58:09.556Z,13.97
2022-10-14T17:00:37.611Z,13.88
2022-10-14T17:03:05.931Z,13.90
2022-10-14T17:05:37.058Z,13.82
2022-10-14T17:08:06.929Z,13.88
2022-10-14T17:10:35.222Z,13.80
2022-10-14T17:13:03.520Z,13.81
2022-10-14T17:15:33.340Z,13.72
2022-10-14T17:18:01.715Z,13.80
2022-10-14T17:20:33.244Z,13.68
2022-10-14T17:23:01.327Z,13.71
2022-10-14T17:25:30.818Z,13.70
2022-10-14T17:28:04.397Z,13.80
2022-10-14T17:30:33.831Z,13.78
2022-10-14T17:33:10.018Z,13.85
2022-10-14T17:35:38.425Z,13.73
2022-10-14T17:38:07.748Z,13.86
2022-10-14T17:40:41.719Z,13.73
2022-10-14T17:43:10.499Z,13.88
2022-10-14T17:45:43.505Z,13.89
2022-10-14T17:48:12.583Z,13.89
2022-10-14T17:50:40.625Z,13.75
2022-10-14T17:53:13.302Z,13.81
2022-10-14T17:55:42.511Z,13.71
2022-10-14T17:58:22.292Z,13.77
2022-10-14T18:01:01.792Z,13.67
2022-10-14T18:03:52.619Z,13.72
2022-10-14T18:06:37.921Z,13.58
2022-10-14T18:09:10.001Z,13.49
2022-10-14T18:12:09.633Z,13.38
2022-10-14T18:15:17.144Z,13.47
2022-10-14T18:18:10.862Z,13.35
2022-10-14T18:21:11.028Z,13.42
2022-10-14T18:23:41.660Z,13.35
2022-10-14T18:26:23.474Z,13.38
2022-10-14T18:28:55.917Z,13.33
2022-10-14T18:34:24.782Z,13.22
2022-10-14T18:36:56.943Z,13.20
2022-10-14T18:39:36.079Z,13.08
2022-10-14T18:44:57.781Z,13.08
2022-10-14T18:47:29.351Z,13.10
2022-10-14T18:50:06.312Z,13.09
2022-10-14T18:52:37.680Z,13.09
2022-10-14T18:55:22.081Z,13.09
2022-10-14T18:58:03.990Z,13.06
2022-10-14T19:00:44.308Z,12.95
2022-10-14T19:03:15.709Z,13.04
2022-10-14T19:06:10.908Z,13.01
2022-10-14T19:08:47.292Z,12.88
2022-10-14T19:11:55.661Z,12.94
2022-10-14T19:14:32.838Z,12.82
2022-10-14T19:17:15.472Z,12.65
2022-10-14T19:19:46.085Z,12.82
2022-10-14T19:22:30.049Z,12.66
2022-10-14T19:24:59.593Z,12.70
2022-10-14T19:27:37.936Z,12.76
2022-10-14T19:30:07.287Z,12.75
2022-10-14T19:32:36.401Z,12.74
2022-10-14T19:35:04.956Z,12.67
2022-10-14T19:37:34.606Z,12.63
2022-10-14T19:40:02.638Z,12.70
2022-10-14T19:42:30.788Z,12.59
2022-10-14T19:44:59.611Z,12.64
2022-10-14T19:47:27.708Z,12.62
2022-10-14T19:49:57.106Z,12.61
2022-10-14T19:52:26.427Z,12.60
2022-10-14T19:54:55.853Z,12.55
2022-10-14T19:57:24.492Z,12.51
2022-10-14T20:00:00.511Z,12.46
2022-10-14T20:02:31.992Z,12.48
2022-10-14T20:05:00.513Z,12.38
2022-10-14T20:07:29.541Z,12.47
2022-10-14T20:10:02.019Z,12.40
2022-10-14T20:12:31.160Z,12.45
2022-10-14T20:14:59.283Z,12.40
2022-10-14T20:17:28.000Z,12.35
2022-10-14T20:19:56.456Z,12.34
2022-10-14T20:22:25.785Z,12.33
2022-10-14T20:24:53.879Z,12.24
2022-10-14T20:27:23.706Z,12.26
2022-10-14T20:29:51.980Z,12.20
2022-10-14T20:32:21.491Z,12.26
2022-10-14T20:34:49.773Z,12.23
2022-10-14T20:37:17.759Z,12.25
2022-10-14T20:39:45.767Z,12.20
2022-10-14T20:45:25.454Z,12.14
2022-10-14T20:47:54.239Z,12.16
2022-10-14T20:50:23.179Z,12.06
2022-10-14T20:52:56.158Z,12.09
2022-10-14T20:55:26.137Z,12.04
2022-10-14T20:57:54.290Z,12.09
2022-10-14T21:00:23.952Z,12.05
2022-10-14T21:02:52.212Z,11.97
2022-10-14T21:05:20.803Z,12.00
2022-10-14T21:07:48.837Z,12.03
2022-10-14T21:10:18.556Z,11.92
2022-10-14T21:12:48.797Z,11.97
2022-10-14T21:15:33.590Z,11.91
2022-10-14T21:18:01.496Z,11.92
2022-10-14T21:20:30.607Z,11.96
2022-10-14T21:23:00.683Z,11.93
2022-10-14T21:25:28.731Z,11.91
2022-10-14T21:27:57.997Z,11.91
2022-10-14T21:30:26.287Z,11.87
2022-10-14T21:33:03.686Z,11.94
2022-10-14T21:35:34.217Z,11.85
2022-10-14T21:38:06.168Z,11.76
2022-10-14T21:40:34.246Z,11.80
2022-10-14T21:43:02.293Z,11.86
2022-10-14T21:45:30.735Z,11.88
2022-10-14T21:47:59.653Z,11.86
2022-10-14T21:50:33.638Z,11.78
2022-10-14T21:53:03.549Z,11.86
2022-10-14T21:55:31.553Z,11.84
2022-10-14T21:58:00.849Z,11.83
2022-10-14T22:00:29.890Z,11.80
2022-10-14T22:02:58.845Z,11.78
2022-10-14T22:05:26.752Z,11.73
2022-10-14T22:07:56.121Z,11.75
2022-10-14T22:10:43.775Z,11.72
2022-10-14T22:13:12.531Z,11.75
2022-10-14T22:15:43.923Z,11.74
2022-10-14T22:18:11.835Z,11.78
2022-10-14T22:20:39.728Z,11.81
2022-10-14T22:23:09.036Z,11.81
2022-10-14T22:25:36.896Z,11.79
2022-10-14T22:28:05.616Z,11.74
2022-10-14T22:30:35.145Z,11.65
2022-10-14T22:33:03.095Z,11.78
2022-10-14T22:35:31.156Z,11.67
2022-10-14T22:37:59.095Z,11.68
2022-10-14T22:40:28.443Z,11.65
2022-10-14T22:42:56.346Z,11.68
2022-10-14T22:45:24.361Z,11.75
2022-10-14T22:47:52.527Z,11.73
2022-10-14T22:50:20.445Z,11.68
2022-10-14T22:52:49.384Z,11.62
2022-10-14T22:55:17.363Z,11.58
2022-10-14T22:58:04.552Z,11.36
2022-10-14T23:00:32.797Z,11.50
2022-10-14T23:03:00.824Z,11.45
2022-10-14T23:05:31.053Z,11.33
2022-10-14T23:07:58.980Z,11.44
2022-10-14T23:10:26.953Z,11.43
2022-10-14T23:12:55.033Z,11.42
2022-10-14T23:15:26.284Z,11.37
2022-10-14T23:17:59.495Z,11.48
2022-10-14T23:20:28.389Z,11.44
2022-10-14T23:23:00.712Z,11.51
2022-10-14T23:25:30.647Z,11.50
2022-10-14T23:27:59.634Z,11.55
2022-10-14T23:30:31.790Z,11.53
2022-10-14T23:32:59.709Z,11.53
2022-10-14T23:35:27.531Z,11.53
2022-10-14T23:37:55.398Z,11.55
2022-10-14T23:40:24.318Z,11.54
2022-10-14T23:42:54.234Z,11.56
2022-10-14T23:45:24.108Z,11.49
2022-10-14T23:47:53.397Z,11.60
2022-10-14T23:50:21.416Z,11.62
2022-10-14T23:52:49.342Z,11.59
2022-10-14T23:55:17.803Z,11.62
2022-10-14T23:57:45.700Z,11.59
